Emerald Isle, North Carolina
Current Conditions -  °F | °C
As of 8:31 PM on Monday 24 Nov 2014 (Local Time) from KNJM Reporting Station
Haze Haze  
Wind Chill: 65°   Ceiling: 4500
Heat Index: 65°   Visibility: 5mi
Dew Point: 64°   Wind: 9mph
Humidity: 97%   Direction: 210°SSW
Pressure: 29.96"   Gusts: NA
Location:  34.68°N, 76.95°W
Report Text: KNJM 250131Z AUTO 21008KT 5SM BR SCT002 BKN045 OVC055 18/18 A2996 RMK AO2 T01830178
Loading
Personal Weather Stations






























Interactive Weather Map New forecast layout! Learn more

10-Day Weather Forecast

Advertisements
Track Severe Weather on mobile